sensor_id;sensor_type;location;lat;lon;timestamp;P1;durP1;ratioP1;P2;durP2;ratioP2
5622;SDS011;2833;50.432;10.706;2023-12-20T00:00:34;2.83;;;2.60;;
5622;SDS011;2833;50.432;10.706;2023-12-20T00:02:59;2.60;;;2.40;;
5622;SDS011;2833;50.432;10.706;2023-12-20T00:05:24;3.23;;;2.90;;
5622;SDS011;2833;50.432;10.706;2023-12-20T00:07:49;2.30;;;2.10;;
5622;SDS011;2833;50.432;10.706;2023-12-20T00:10:15;2.07;;;1.97;;
5622;SDS011;2833;50.432;10.706;2023-12-20T00:12:40;2.10;;;2.00;;
5622;SDS011;2833;50.432;10.706;2023-12-20T00:15:06;2.40;;;2.20;;
5622;SDS011;2833;50.432;10.706;2023-12-20T00:17:31;1.53;;;1.43;;
5622;SDS011;2833;50.432;10.706;2023-12-20T00:19:56;1.97;;;1.80;;
5622;SDS011;2833;50.432;10.706;2023-12-20T00:22:21;1.77;;;1.67;;
5622;SDS011;2833;50.432;10.706;2023-12-20T00:24:46;1.50;;;1.40;;
5622;SDS011;2833;50.432;10.706;2023-12-20T00:27:12;2.00;;;1.90;;
5622;SDS011;2833;50.432;10.706;2023-12-20T00:29:37;1.80;;;1.70;;
5622;SDS011;2833;50.432;10.706;2023-12-20T00:32:02;2.40;;;2.20;;
5622;SDS011;2833;50.432;10.706;2023-12-20T00:34:27;1.87;;;1.77;;
5622;SDS011;2833;50.432;10.706;2023-12-20T00:36:53;1.70;;;1.60;;
5622;SDS011;2833;50.432;10.706;2023-12-20T00:39:18;1.90;;;1.80;;
5622;SDS011;2833;50.432;10.706;2023-12-20T00:41:43;2.23;;;1.70;;
5622;SDS011;2833;50.432;10.706;2023-12-20T00:44:08;1.27;;;1.17;;
5622;SDS011;2833;50.432;10.706;2023-12-20T00:46:33;1.70;;;1.60;;
5622;SDS011;2833;50.432;10.706;2023-12-20T00:48:59;1.83;;;1.73;;
5622;SDS011;2833;50.432;10.706;2023-12-20T00:51:24;1.77;;;1.60;;
5622;SDS011;2833;50.432;10.706;2023-12-20T00:53:49;4.40;;;1.03;;
5622;SDS011;2833;50.432;10.706;2023-12-20T00:56:16;1.40;;;1.30;;
5622;SDS011;2833;50.432;10.706;2023-12-20T00:58:41;1.40;;;1.30;;
5622;SDS011;2833;50.432;10.706;2023-12-20T01:01:06;1.10;;;1.10;;
5622;SDS011;2833;50.432;10.706;2023-12-20T01:03:32;1.07;;;1.07;;
5622;SDS011;2833;50.432;10.706;2023-12-20T01:05:57;1.40;;;1.30;;
5622;SDS011;2833;50.432;10.706;2023-12-20T01:08:22;6.47;;;1.40;;
5622;SDS011;2833;50.432;10.706;2023-12-20T01:10:47;1.00;;;1.00;;
5622;SDS011;2833;50.432;10.706;2023-12-20T01:13:13;1.60;;;1.33;;
5622;SDS011;2833;50.432;10.706;2023-12-20T01:15:38;1.10;;;1.10;;
5622;SDS011;2833;50.432;10.706;2023-12-20T01:18:03;1.30;;;1.20;;
5622;SDS011;2833;50.432;10.706;2023-12-20T01:20:28;1.13;;;1.13;;
5622;SDS011;2833;50.432;10.706;2023-12-20T01:22:53;1.37;;;1.27;;
5622;SDS011;2833;50.432;10.706;2023-12-20T01:25:19;1.20;;;1.10;;
5622;SDS011;2833;50.432;10.706;2023-12-20T01:27:44;0.87;;;0.87;;
5622;SDS011;2833;50.432;10.706;2023-12-20T01:30:09;1.10;;;1.10;;
5622;SDS011;2833;50.432;10.706;2023-12-20T01:32:34;3.60;;;1.30;;
5622;SDS011;2833;50.432;10.706;2023-12-20T01:35:00;1.30;;;1.20;;
5622;SDS011;2833;50.432;10.706;2023-12-20T01:37:25;1.40;;;1.30;;
5622;SDS011;2833;50.432;10.706;2023-12-20T01:39:51;1.00;;;1.00;;
5622;SDS011;2833;50.432;10.706;2023-12-20T01:42:18;1.20;;;1.10;;
5622;SDS011;2833;50.432;10.706;2023-12-20T01:44:43;2.40;;;1.17;;
5622;SDS011;2833;50.432;10.706;2023-12-20T01:47:08;1.03;;;0.93;;
5622;SDS011;2833;50.432;10.706;2023-12-20T01:49:33;1.03;;;1.00;;
5622;SDS011;2833;50.432;10.706;2023-12-20T01:51:59;1.17;;;1.17;;
5622;SDS011;2833;50.432;10.706;2023-12-20T01:54:24;1.30;;;1.20;;
5622;SDS011;2833;50.432;10.706;2023-12-20T01:56:49;1.10;;;1.10;;
5622;SDS011;2833;50.432;10.706;2023-12-20T01:59:15;1.30;;;1.20;;
5622;SDS011;2833;50.432;10.706;2023-12-20T02:01:40;1.00;;;1.00;;
5622;SDS011;2833;50.432;10.706;2023-12-20T02:04:05;1.23;;;1.13;;
5622;SDS011;2833;50.432;10.706;2023-12-20T02:06:31;0.90;;;0.80;;
5622;SDS011;2833;50.432;10.706;2023-12-20T02:08:58;2.00;;;0.90;;
5622;SDS011;2833;50.432;10.706;2023-12-20T02:11:24;0.90;;;0.90;;
5622;SDS011;2833;50.432;10.706;2023-12-20T02:13:50;1.37;;;1.00;;
5622;SDS011;2833;50.432;10.706;2023-12-20T02:16:15;1.00;;;1.00;;
5622;SDS011;2833;50.432;10.706;2023-12-20T02:18:41;0.90;;;0.90;;
5622;SDS011;2833;50.432;10.706;2023-12-20T02:21:07;0.90;;;0.90;;
5622;SDS011;2833;50.432;10.706;2023-12-20T02:23:34;1.10;;;1.10;;
5622;SDS011;2833;50.432;10.706;2023-12-20T02:25:59;0.93;;;0.93;;
5622;SDS011;2833;50.432;10.706;2023-12-20T02:28:24;1.30;;;1.20;;
5622;SDS011;2833;50.432;10.706;2023-12-20T02:30:49;1.37;;;1.10;;
5622;SDS011;2833;50.432;10.706;2023-12-20T02:33:14;0.90;;;0.90;;
5622;SDS011;2833;50.432;10.706;2023-12-20T02:35:40;1.10;;;1.10;;
5622;SDS011;2833;50.432;10.706;2023-12-20T02:38:05;1.00;;;1.00;;
5622;SDS011;2833;50.432;10.706;2023-12-20T02:40:30;1.10;;;1.10;;
5622;SDS011;2833;50.432;10.706;2023-12-20T02:42:55;1.07;;;1.07;;
5622;SDS011;2833;50.432;10.706;2023-12-20T02:45:21;1.10;;;1.10;;
5622;SDS011;2833;50.432;10.706;2023-12-20T02:47:46;1.17;;;1.10;;
5622;SDS011;2833;50.432;10.706;2023-12-20T02:50:11;1.10;;;1.10;;
5622;SDS011;2833;50.432;10.706;2023-12-20T02:52:36;1.00;;;0.97;;
5622;SDS011;2833;50.432;10.706;2023-12-20T02:55:01;2.83;;;1.50;;
5622;SDS011;2833;50.432;10.706;2023-12-20T02:57:27;1.27;;;1.20;;
5622;SDS011;2833;50.432;10.706;2023-12-20T02:59:52;1.00;;;1.00;;
5622;SDS011;2833;50.432;10.706;2023-12-20T03:02:17;1.30;;;1.23;;
5622;SDS011;2833;50.432;10.706;2023-12-20T03:04:42;1.10;;;1.10;;
5622;SDS011;2833;50.432;10.706;2023-12-20T03:07:07;1.13;;;1.13;;
5622;SDS011;2833;50.432;10.706;2023-12-20T03:09:33;2.00;;;1.10;;
5622;SDS011;2833;50.432;10.706;2023-12-20T03:11:58;1.87;;;1.77;;
5622;SDS011;2833;50.432;10.706;2023-12-20T03:14:23;1.40;;;1.30;;
5622;SDS011;2833;50.432;10.706;2023-12-20T03:16:49;1.47;;;1.37;;
5622;SDS011;2833;50.432;10.706;2023-12-20T03:19:14;1.50;;;1.47;;
5622;SDS011;2833;50.432;10.706;2023-12-20T03:21:40;1.30;;;1.27;;
5622;SDS011;2833;50.432;10.706;2023-12-20T03:24:05;1.40;;;1.30;;
5622;SDS011;2833;50.432;10.706;2023-12-20T03:26:30;1.40;;;1.30;;
5622;SDS011;2833;50.432;10.706;2023-12-20T03:28:55;1.30;;;1.20;;
5622;SDS011;2833;50.432;10.706;2023-12-20T03:31:20;2.83;;;2.63;;
5622;SDS011;2833;50.432;10.706;2023-12-20T03:33:46;1.60;;;1.50;;
5622;SDS011;2833;50.432;10.706;2023-12-20T03:36:12;1.77;;;1.67;;
5622;SDS011;2833;50.432;10.706;2023-12-20T03:38:37;1.57;;;1.47;;
5622;SDS011;2833;50.432;10.706;2023-12-20T03:41:02;1.50;;;1.40;;
5622;SDS011;2833;50.432;10.706;2023-12-20T03:43:27;1.63;;;1.53;;
5622;SDS011;2833;50.432;10.706;2023-12-20T03:45:52;1.30;;;1.30;;
5622;SDS011;2833;50.432;10.706;2023-12-20T03:48:17;1.60;;;1.50;;
5622;SDS011;2833;50.432;10.706;2023-12-20T03:50:43;1.50;;;1.40;;
5622;SDS011;2833;50.432;10.706;2023-12-20T03:53:08;1.80;;;1.70;;
5622;SDS011;2833;50.432;10.706;2023-12-20T03:55:33;1.67;;;1.57;;
5622;SDS011;2833;50.432;10.706;2023-12-20T03:57:58;1.40;;;1.30;;
5622;SDS011;2833;50.432;10.706;2023-12-20T04:00:23;1.63;;;1.53;;
5622;SDS011;2833;50.432;10.706;2023-12-20T04:02:49;1.43;;;1.33;;
5622;SDS011;2833;50.432;10.706;2023-12-20T04:05:14;2.00;;;1.90;;
5622;SDS011;2833;50.432;10.706;2023-12-20T04:07:39;1.70;;;1.60;;
5622;SDS011;2833;50.432;10.706;2023-12-20T04:10:04;1.50;;;1.43;;
5622;SDS011;2833;50.432;10.706;2023-12-20T04:12:30;1.80;;;1.70;;
5622;SDS011;2833;50.432;10.706;2023-12-20T04:14:58;1.80;;;1.70;;
5622;SDS011;2833;50.432;10.706;2023-12-20T04:17:23;1.63;;;1.53;;
5622;SDS011;2833;50.432;10.706;2023-12-20T04:19:49;1.73;;;1.63;;
5622;SDS011;2833;50.432;10.706;2023-12-20T04:22:14;1.90;;;1.80;;
5622;SDS011;2833;50.432;10.706;2023-12-20T04:24:39;1.70;;;1.60;;
5622;SDS011;2833;50.432;10.706;2023-12-20T04:27:07;1.70;;;1.60;;
5622;SDS011;2833;50.432;10.706;2023-12-20T04:29:33;1.90;;;1.80;;
5622;SDS011;2833;50.432;10.706;2023-12-20T04:31:58;1.70;;;1.60;;
5622;SDS011;2833;50.432;10.706;2023-12-20T04:34:23;1.70;;;1.60;;
5622;SDS011;2833;50.432;10.706;2023-12-20T04:36:48;1.80;;;1.70;;
5622;SDS011;2833;50.432;10.706;2023-12-20T04:39:13;2.20;;;1.90;;
5622;SDS011;2833;50.432;10.706;2023-12-20T04:41:40;1.30;;;1.30;;
5622;SDS011;2833;50.432;10.706;2023-12-20T04:44:05;1.93;;;1.83;;
5622;SDS011;2833;50.432;10.706;2023-12-20T04:46:31;1.70;;;1.60;;
5622;SDS011;2833;50.432;10.706;2023-12-20T04:48:56;1.60;;;1.50;;
5622;SDS011;2833;50.432;10.706;2023-12-20T04:51:21;2.03;;;1.60;;
5622;SDS011;2833;50.432;10.706;2023-12-20T04:53:46;1.77;;;1.67;;
5622;SDS011;2833;50.432;10.706;2023-12-20T04:56:12;1.73;;;1.57;;
5622;SDS011;2833;50.432;10.706;2023-12-20T04:58:37;1.80;;;1.70;;
5622;SDS011;2833;50.432;10.706;2023-12-20T05:01:02;1.90;;;1.80;;
5622;SDS011;2833;50.432;10.706;2023-12-20T05:03:28;1.73;;;1.63;;
5622;SDS011;2833;50.432;10.706;2023-12-20T05:05:53;1.80;;;1.70;;
5622;SDS011;2833;50.432;10.706;2023-12-20T05:08:19;2.10;;;2.00;;
5622;SDS011;2833;50.432;10.706;2023-12-20T05:10:44;2.20;;;2.10;;
5622;SDS011;2833;50.432;10.706;2023-12-20T05:13:10;2.77;;;1.87;;
5622;SDS011;2833;50.432;10.706;2023-12-20T05:15:35;1.60;;;1.50;;
5622;SDS011;2833;50.432;10.706;2023-12-20T05:18:00;1.80;;;1.70;;
5622;SDS011;2833;50.432;10.706;2023-12-20T05:20:26;2.20;;;2.00;;
5622;SDS011;2833;50.432;10.706;2023-12-20T05:22:51;1.90;;;1.80;;
5622;SDS011;2833;50.432;10.706;2023-12-20T05:25:16;2.00;;;1.90;;
5622;SDS011;2833;50.432;10.706;2023-12-20T05:27:41;2.20;;;2.00;;
5622;SDS011;2833;50.432;10.706;2023-12-20T05:30:07;2.03;;;1.93;;
5622;SDS011;2833;50.432;10.706;2023-12-20T05:32:32;2.03;;;1.90;;
5622;SDS011;2833;50.432;10.706;2023-12-20T05:34:57;2.00;;;1.90;;
5622;SDS011;2833;50.432;10.706;2023-12-20T05:37:22;1.90;;;1.80;;
5622;SDS011;2833;50.432;10.706;2023-12-20T05:39:48;1.93;;;1.73;;
5622;SDS011;2833;50.432;10.706;2023-12-20T05:42:13;2.23;;;2.13;;
5622;SDS011;2833;50.432;10.706;2023-12-20T05:44:38;2.20;;;2.10;;
5622;SDS011;2833;50.432;10.706;2023-12-20T05:47:03;2.10;;;1.90;;
5622;SDS011;2833;50.432;10.706;2023-12-20T05:49:28;2.10;;;2.00;;
5622;SDS011;2833;50.432;10.706;2023-12-20T05:51:54;1.90;;;1.80;;
5622;SDS011;2833;50.432;10.706;2023-12-20T05:54:19;1.77;;;1.67;;
5622;SDS011;2833;50.432;10.706;2023-12-20T05:56:44;2.07;;;1.70;;
5622;SDS011;2833;50.432;10.706;2023-12-20T05:59:09;2.80;;;2.33;;
5622;SDS011;2833;50.432;10.706;2023-12-20T06:01:34;2.13;;;2.03;;
5622;SDS011;2833;50.432;10.706;2023-12-20T06:04:00;2.23;;;2.10;;
5622;SDS011;2833;50.432;10.706;2023-12-20T06:06:25;2.57;;;2.37;;
5622;SDS011;2833;50.432;10.706;2023-12-20T06:08:50;2.43;;;2.23;;
5622;SDS011;2833;50.432;10.706;2023-12-20T06:11:15;3.00;;;2.70;;
5622;SDS011;2833;50.432;10.706;2023-12-20T06:13:40;2.67;;;2.47;;
5622;SDS011;2833;50.432;10.706;2023-12-20T06:16:06;2.50;;;2.40;;
5622;SDS011;2833;50.432;10.706;2023-12-20T06:18:32;3.10;;;2.80;;
5622;SDS011;2833;50.432;10.706;2023-12-20T06:20:57;4.60;;;3.70;;
5622;SDS011;2833;50.432;10.706;2023-12-20T06:23:22;2.90;;;2.60;;
5622;SDS011;2833;50.432;10.706;2023-12-20T06:25:47;2.77;;;2.57;;
5622;SDS011;2833;50.432;10.706;2023-12-20T06:28:13;2.80;;;2.60;;
5622;SDS011;2833;50.432;10.706;2023-12-20T06:30:39;3.17;;;2.43;;
5622;SDS011;2833;50.432;10.706;2023-12-20T06:33:05;2.47;;;2.27;;
5622;SDS011;2833;50.432;10.706;2023-12-20T06:35:31;2.37;;;2.17;;
5622;SDS011;2833;50.432;10.706;2023-12-20T06:37:56;2.40;;;2.20;;
5622;SDS011;2833;50.432;10.706;2023-12-20T06:40:22;2.67;;;2.47;;
5622;SDS011;2833;50.432;10.706;2023-12-20T06:42:47;5.43;;;3.33;;
5622;SDS011;2833;50.432;10.706;2023-12-20T06:45:12;3.50;;;2.67;;
5622;SDS011;2833;50.432;10.706;2023-12-20T06:47:37;3.33;;;2.47;;
5622;SDS011;2833;50.432;10.706;2023-12-20T06:50:03;2.73;;;2.50;;
5622;SDS011;2833;50.432;10.706;2023-12-20T06:52:28;4.37;;;3.93;;
5622;SDS011;2833;50.432;10.706;2023-12-20T06:54:53;3.90;;;2.63;;
5622;SDS011;2833;50.432;10.706;2023-12-20T06:59:44;11.93;;;6.30;;
5622;SDS011;2833;50.432;10.706;2023-12-20T07:02:10;7.17;;;4.53;;
5622;SDS011;2833;50.432;10.706;2023-12-20T07:04:39;13.30;;;8.50;;
5622;SDS011;2833;50.432;10.706;2023-12-20T07:07:04;11.13;;;7.23;;
5622;SDS011;2833;50.432;10.706;2023-12-20T07:09:29;7.17;;;4.10;;
5622;SDS011;2833;50.432;10.706;2023-12-20T07:11:54;4.63;;;3.43;;
5622;SDS011;2833;50.432;10.706;2023-12-20T07:14:19;3.70;;;2.87;;
5622;SDS011;2833;50.432;10.706;2023-12-20T07:16:45;4.83;;;2.90;;
5622;SDS011;2833;50.432;10.706;2023-12-20T07:19:10;3.30;;;3.00;;
5622;SDS011;2833;50.432;10.706;2023-12-20T07:21:35;3.50;;;3.20;;
5622;SDS011;2833;50.432;10.706;2023-12-20T07:24:00;9.70;;;6.87;;
5622;SDS011;2833;50.432;10.706;2023-12-20T07:26:25;6.50;;;4.43;;
5622;SDS011;2833;50.432;10.706;2023-12-20T07:28:51;12.10;;;4.90;;
5622;SDS011;2833;50.432;10.706;2023-12-20T07:31:16;12.90;;;6.37;;
5622;SDS011;2833;50.432;10.706;2023-12-20T07:33:41;8.43;;;5.63;;
5622;SDS011;2833;50.432;10.706;2023-12-20T07:36:06;6.73;;;4.63;;
5622;SDS011;2833;50.432;10.706;2023-12-20T07:38:32;6.27;;;5.40;;
5622;SDS011;2833;50.432;10.706;2023-12-20T07:40:57;4.23;;;3.83;;
5622;SDS011;2833;50.432;10.706;2023-12-20T07:43:23;9.40;;;5.83;;
5622;SDS011;2833;50.432;10.706;2023-12-20T07:45:48;7.70;;;4.97;;
5622;SDS011;2833;50.432;10.706;2023-12-20T07:48:13;7.60;;;5.30;;
5622;SDS011;2833;50.432;10.706;2023-12-20T07:50:39;12.30;;;8.00;;
5622;SDS011;2833;50.432;10.706;2023-12-20T07:53:04;8.60;;;4.97;;
5622;SDS011;2833;50.432;10.706;2023-12-20T07:55:29;5.80;;;4.17;;
5622;SDS011;2833;50.432;10.706;2023-12-20T07:57:55;6.93;;;4.10;;
5622;SDS011;2833;50.432;10.706;2023-12-20T08:00:20;6.73;;;4.30;;
5622;SDS011;2833;50.432;10.706;2023-12-20T08:02:45;3.77;;;3.30;;
5622;SDS011;2833;50.432;10.706;2023-12-20T08:05:11;5.47;;;3.03;;
5622;SDS011;2833;50.432;10.706;2023-12-20T08:07:36;9.33;;;3.50;;
5622;SDS011;2833;50.432;10.706;2023-12-20T08:10:01;4.77;;;3.67;;
5622;SDS011;2833;50.432;10.706;2023-12-20T08:12:27;5.10;;;3.70;;
5622;SDS011;2833;50.432;10.706;2023-12-20T08:14:53;3.50;;;3.20;;
5622;SDS011;2833;50.432;10.706;2023-12-20T08:17:18;6.07;;;3.30;;
5622;SDS011;2833;50.432;10.706;2023-12-20T08:19:44;4.30;;;3.60;;
5622;SDS011;2833;50.432;10.706;2023-12-20T08:22:09;12.27;;;7.60;;
5622;SDS011;2833;50.432;10.706;2023-12-20T08:24:34;5.60;;;3.77;;
5622;SDS011;2833;50.432;10.706;2023-12-20T08:26:59;6.00;;;3.33;;
5622;SDS011;2833;50.432;10.706;2023-12-20T08:29:25;4.50;;;3.17;;
5622;SDS011;2833;50.432;10.706;2023-12-20T08:31:53;4.80;;;4.03;;
5622;SDS011;2833;50.432;10.706;2023-12-20T08:34:21;5.00;;;3.53;;
5622;SDS011;2833;50.432;10.706;2023-12-20T08:36:46;6.63;;;3.40;;
5622;SDS011;2833;50.432;10.706;2023-12-20T08:39:12;5.97;;;3.70;;
5622;SDS011;2833;50.432;10.706;2023-12-20T08:41:37;3.93;;;3.10;;
5622;SDS011;2833;50.432;10.706;2023-12-20T08:44:02;3.47;;;2.80;;
5622;SDS011;2833;50.432;10.706;2023-12-20T08:46:27;5.00;;;2.93;;
5622;SDS011;2833;50.432;10.706;2023-12-20T08:48:52;4.97;;;3.23;;
5622;SDS011;2833;50.432;10.706;2023-12-20T08:51:18;6.50;;;3.10;;
5622;SDS011;2833;50.432;10.706;2023-12-20T08:53:44;5.77;;;3.07;;
5622;SDS011;2833;50.432;10.706;2023-12-20T08:56:10;4.83;;;3.50;;
5622;SDS011;2833;50.432;10.706;2023-12-20T08:58:35;2.97;;;2.77;;
5622;SDS011;2833;50.432;10.706;2023-12-20T09:01:01;3.63;;;2.83;;
5622;SDS011;2833;50.432;10.706;2023-12-20T09:03:26;4.97;;;3.43;;
5622;SDS011;2833;50.432;10.706;2023-12-20T09:05:51;4.67;;;3.00;;
5622;SDS011;2833;50.432;10.706;2023-12-20T09:08:16;2.90;;;2.67;;
5622;SDS011;2833;50.432;10.706;2023-12-20T09:10:41;4.90;;;2.50;;
5622;SDS011;2833;50.432;10.706;2023-12-20T09:13:06;3.43;;;2.53;;
5622;SDS011;2833;50.432;10.706;2023-12-20T09:15:32;4.57;;;3.90;;
5622;SDS011;2833;50.432;10.706;2023-12-20T09:17:59;6.83;;;4.60;;
5622;SDS011;2833;50.432;10.706;2023-12-20T09:20:24;9.47;;;5.97;;
5622;SDS011;2833;50.432;10.706;2023-12-20T09:22:49;9.13;;;5.57;;
5622;SDS011;2833;50.432;10.706;2023-12-20T09:25:14;5.40;;;3.90;;
5622;SDS011;2833;50.432;10.706;2023-12-20T09:27:42;14.47;;;6.80;;
5622;SDS011;2833;50.432;10.706;2023-12-20T09:30:07;7.83;;;4.47;;
5622;SDS011;2833;50.432;10.706;2023-12-20T09:32:32;4.43;;;3.27;;
5622;SDS011;2833;50.432;10.706;2023-12-20T09:34:57;5.43;;;3.80;;
5622;SDS011;2833;50.432;10.706;2023-12-20T09:37:23;10.50;;;4.80;;
5622;SDS011;2833;50.432;10.706;2023-12-20T09:39:48;4.77;;;4.10;;
5622;SDS011;2833;50.432;10.706;2023-12-20T09:42:14;5.23;;;3.53;;
5622;SDS011;2833;50.432;10.706;2023-12-20T09:44:41;5.17;;;2.90;;
5622;SDS011;2833;50.432;10.706;2023-12-20T09:47:07;3.80;;;2.90;;
5622;SDS011;2833;50.432;10.706;2023-12-20T09:49:33;5.77;;;4.53;;
5622;SDS011;2833;50.432;10.706;2023-12-20T09:51:58;8.47;;;4.53;;
5622;SDS011;2833;50.432;10.706;2023-12-20T09:54:24;4.10;;;3.70;;
5622;SDS011;2833;50.432;10.706;2023-12-20T09:56:50;4.90;;;3.67;;
5622;SDS011;2833;50.432;10.706;2023-12-20T09:59:15;6.17;;;4.20;;
5622;SDS011;2833;50.432;10.706;2023-12-20T10:01:41;9.80;;;5.60;;
5622;SDS011;2833;50.432;10.706;2023-12-20T10:04:07;5.10;;;3.87;;
5622;SDS011;2833;50.432;10.706;2023-12-20T10:06:43;3.73;;;3.20;;
5622;SDS011;2833;50.432;10.706;2023-12-20T10:09:09;4.80;;;3.23;;
5622;SDS011;2833;50.432;10.706;2023-12-20T10:11:38;8.47;;;4.00;;
5622;SDS011;2833;50.432;10.706;2023-12-20T10:14:04;7.87;;;3.00;;
5622;SDS011;2833;50.432;10.706;2023-12-20T10:16:29;4.90;;;3.90;;
5622;SDS011;2833;50.432;10.706;2023-12-20T10:18:55;8.20;;;4.20;;
5622;SDS011;2833;50.432;10.706;2023-12-20T10:21:21;4.10;;;3.00;;
5622;SDS011;2833;50.432;10.706;2023-12-20T10:23:47;5.57;;;3.80;;
5622;SDS011;2833;50.432;10.706;2023-12-20T10:26:23;6.97;;;3.53;;
5622;SDS011;2833;50.432;10.706;2023-12-20T10:28:55;3.93;;;2.73;;
5622;SDS011;2833;50.432;10.706;2023-12-20T10:31:27;7.10;;;2.90;;
5622;SDS011;2833;50.432;10.706;2023-12-20T10:33:53;6.00;;;2.87;;
5622;SDS011;2833;50.432;10.706;2023-12-20T10:36:18;5.63;;;3.40;;
5622;SDS011;2833;50.432;10.706;2023-12-20T10:38:44;12.47;;;4.80;;
5622;SDS011;2833;50.432;10.706;2023-12-20T10:41:09;6.47;;;3.67;;
5622;SDS011;2833;50.432;10.706;2023-12-20T10:43:35;8.17;;;5.37;;
5622;SDS011;2833;50.432;10.706;2023-12-20T10:46:01;6.83;;;5.10;;
5622;SDS011;2833;50.432;10.706;2023-12-20T10:48:28;7.87;;;4.80;;
5622;SDS011;2833;50.432;10.706;2023-12-20T10:50:55;5.60;;;4.13;;
5622;SDS011;2833;50.432;10.706;2023-12-20T10:53:20;2.60;;;2.40;;
5622;SDS011;2833;50.432;10.706;2023-12-20T10:55:46;4.87;;;2.67;;
5622;SDS011;2833;50.432;10.706;2023-12-20T10:58:12;6.27;;;2.80;;
5622;SDS011;2833;50.432;10.706;2023-12-20T11:00:39;12.20;;;3.13;;
5622;SDS011;2833;50.432;10.706;2023-12-20T11:03:05;5.03;;;2.73;;
5622;SDS011;2833;50.432;10.706;2023-12-20T11:05:36;16.40;;;5.80;;
5622;SDS011;2833;50.432;10.706;2023-12-20T11:08:07;4.43;;;2.60;;
5622;SDS011;2833;50.432;10.706;2023-12-20T11:15:30;6.03;;;2.33;;
5622;SDS011;2833;50.432;10.706;2023-12-20T11:17:55;4.00;;;2.40;;
5622;SDS011;2833;50.432;10.706;2023-12-20T11:20:22;6.43;;;3.90;;
5622;SDS011;2833;50.432;10.706;2023-12-20T11:22:54;14.50;;;6.20;;
5622;SDS011;2833;50.432;10.706;2023-12-20T11:25:19;4.10;;;3.03;;
5622;SDS011;2833;50.432;10.706;2023-12-20T11:27:47;6.00;;;3.37;;
5622;SDS011;2833;50.432;10.706;2023-12-20T11:30:40;16.33;;;6.90;;
5622;SDS011;2833;50.432;10.706;2023-12-20T11:33:05;8.37;;;5.23;;
5622;SDS011;2833;50.432;10.706;2023-12-20T11:35:32;7.47;;;3.70;;
5622;SDS011;2833;50.432;10.706;2023-12-20T11:37:57;5.77;;;4.30;;
5622;SDS011;2833;50.432;10.706;2023-12-20T11:40:23;7.33;;;3.73;;
5622;SDS011;2833;50.432;10.706;2023-12-20T11:42:48;8.57;;;5.33;;
5622;SDS011;2833;50.432;10.706;2023-12-20T11:45:14;6.07;;;4.77;;
5622;SDS011;2833;50.432;10.706;2023-12-20T11:47:41;2.73;;;2.17;;
5622;SDS011;2833;50.432;10.706;2023-12-20T11:50:07;4.30;;;2.87;;
5622;SDS011;2833;50.432;10.706;2023-12-20T11:52:32;4.67;;;3.53;;
5622;SDS011;2833;50.432;10.706;2023-12-20T11:54:57;9.50;;;3.30;;
5622;SDS011;2833;50.432;10.706;2023-12-20T11:57:23;6.00;;;3.07;;
5622;SDS011;2833;50.432;10.706;2023-12-20T11:59:48;6.00;;;2.83;;
5622;SDS011;2833;50.432;10.706;2023-12-20T12:02:13;4.23;;;2.70;;
5622;SDS011;2833;50.432;10.706;2023-12-20T12:04:41;8.53;;;4.37;;
5622;SDS011;2833;50.432;10.706;2023-12-20T12:07:06;5.30;;;3.17;;
5622;SDS011;2833;50.432;10.706;2023-12-20T12:09:31;9.07;;;1.83;;
5622;SDS011;2833;50.432;10.706;2023-12-20T12:11:56;8.40;;;3.50;;
5622;SDS011;2833;50.432;10.706;2023-12-20T12:14:21;24.07;;;7.47;;
5622;SDS011;2833;50.432;10.706;2023-12-20T12:16:47;9.63;;;3.03;;
5622;SDS011;2833;50.432;10.706;2023-12-20T12:19:25;7.17;;;3.40;;
5622;SDS011;2833;50.432;10.706;2023-12-20T12:21:51;14.93;;;5.57;;
5622;SDS011;2833;50.432;10.706;2023-12-20T12:24:20;4.83;;;2.17;;
5622;SDS011;2833;50.432;10.706;2023-12-20T12:26:49;7.93;;;2.87;;
5622;SDS011;2833;50.432;10.706;2023-12-20T12:29:14;6.60;;;2.30;;
5622;SDS011;2833;50.432;10.706;2023-12-20T12:31:40;11.87;;;4.60;;
5622;SDS011;2833;50.432;10.706;2023-12-20T12:34:05;5.13;;;2.90;;
5622;SDS011;2833;50.432;10.706;2023-12-20T12:36:30;7.37;;;3.63;;
5622;SDS011;2833;50.432;10.706;2023-12-20T12:38:56;12.67;;;5.67;;
5622;SDS011;2833;50.432;10.706;2023-12-20T12:41:21;17.37;;;6.13;;
5622;SDS011;2833;50.432;10.706;2023-12-20T12:43:47;8.53;;;4.67;;
5622;SDS011;2833;50.432;10.706;2023-12-20T12:46:12;6.83;;;3.00;;
5622;SDS011;2833;50.432;10.706;2023-12-20T12:48:37;6.10;;;4.10;;
5622;SDS011;2833;50.432;10.706;2023-12-20T12:51:03;9.60;;;4.00;;
5622;SDS011;2833;50.432;10.706;2023-12-20T12:53:28;4.50;;;2.50;;
5622;SDS011;2833;50.432;10.706;2023-12-20T12:55:53;15.67;;;5.73;;
5622;SDS011;2833;50.432;10.706;2023-12-20T12:58:19;16.90;;;5.57;;
5622;SDS011;2833;50.432;10.706;2023-12-20T13:00:44;10.07;;;4.10;;
5622;SDS011;2833;50.432;10.706;2023-12-20T13:03:10;7.67;;;4.20;;
5622;SDS011;2833;50.432;10.706;2023-12-20T13:05:35;6.50;;;3.40;;
5622;SDS011;2833;50.432;10.706;2023-12-20T13:08:00;21.03;;;6.93;;
5622;SDS011;2833;50.432;10.706;2023-12-20T13:10:25;36.13;;;8.50;;
5622;SDS011;2833;50.432;10.706;2023-12-20T13:12:50;26.67;;;10.97;;
5622;SDS011;2833;50.432;10.706;2023-12-20T13:15:16;41.63;;;13.13;;
5622;SDS011;2833;50.432;10.706;2023-12-20T13:17:41;10.40;;;4.20;;
5622;SDS011;2833;50.432;10.706;2023-12-20T13:20:07;18.67;;;6.80;;
5622;SDS011;2833;50.432;10.706;2023-12-20T13:22:32;23.73;;;10.70;;
5622;SDS011;2833;50.432;10.706;2023-12-20T13:24:57;39.00;;;15.13;;
5622;SDS011;2833;50.432;10.706;2023-12-20T13:27:22;6.37;;;2.50;;
5622;SDS011;2833;50.432;10.706;2023-12-20T13:29:49;13.50;;;4.17;;
5622;SDS011;2833;50.432;10.706;2023-12-20T13:32:14;13.13;;;6.93;;
5622;SDS011;2833;50.432;10.706;2023-12-20T13:34:39;1.93;;;1.77;;
5622;SDS011;2833;50.432;10.706;2023-12-20T13:37:04;15.13;;;5.93;;
5622;SDS011;2833;50.432;10.706;2023-12-20T13:39:29;7.77;;;4.63;;
5622;SDS011;2833;50.432;10.706;2023-12-20T13:41:56;8.80;;;3.70;;
5622;SDS011;2833;50.432;10.706;2023-12-20T13:44:21;4.70;;;2.67;;
5622;SDS011;2833;50.432;10.706;2023-12-20T13:46:46;8.67;;;2.80;;
5622;SDS011;2833;50.432;10.706;2023-12-20T13:49:11;8.63;;;3.90;;
5622;SDS011;2833;50.432;10.706;2023-12-20T13:51:37;8.83;;;4.77;;
5622;SDS011;2833;50.432;10.706;2023-12-20T13:54:03;15.43;;;6.07;;
5622;SDS011;2833;50.432;10.706;2023-12-20T13:56:28;5.57;;;2.93;;
5622;SDS011;2833;50.432;10.706;2023-12-20T13:58:54;7.27;;;3.90;;
5622;SDS011;2833;50.432;10.706;2023-12-20T14:01:19;10.03;;;4.87;;
5622;SDS011;2833;50.432;10.706;2023-12-20T14:03:45;4.77;;;2.50;;
5622;SDS011;2833;50.432;10.706;2023-12-20T14:06:10;6.93;;;2.90;;
5622;SDS011;2833;50.432;10.706;2023-12-20T14:08:35;4.93;;;3.40;;
5622;SDS011;2833;50.432;10.706;2023-12-20T14:11:01;9.10;;;3.30;;
5622;SDS011;2833;50.432;10.706;2023-12-20T14:13:26;6.37;;;2.90;;
5622;SDS011;2833;50.432;10.706;2023-12-20T14:15:51;7.03;;;2.37;;
5622;SDS011;2833;50.432;10.706;2023-12-20T14:18:16;5.83;;;4.20;;
5622;SDS011;2833;50.432;10.706;2023-12-20T14:20:43;6.63;;;4.23;;
5622;SDS011;2833;50.432;10.706;2023-12-20T14:23:09;39.30;;;12.03;;
5622;SDS011;2833;50.432;10.706;2023-12-20T14:25:34;20.00;;;8.77;;
5622;SDS011;2833;50.432;10.706;2023-12-20T14:28:02;10.00;;;3.77;;
5622;SDS011;2833;50.432;10.706;2023-12-20T14:30:27;10.60;;;3.40;;
5622;SDS011;2833;50.432;10.706;2023-12-20T14:32:53;6.53;;;3.53;;
5622;SDS011;2833;50.432;10.706;2023-12-20T14:35:18;6.33;;;2.97;;
5622;SDS011;2833;50.432;10.706;2023-12-20T14:37:44;10.30;;;3.97;;
5622;SDS011;2833;50.432;10.706;2023-12-20T14:40:10;16.50;;;8.10;;
5622;SDS011;2833;50.432;10.706;2023-12-20T14:42:40;26.40;;;11.90;;
5622;SDS011;2833;50.432;10.706;2023-12-20T14:45:05;9.53;;;3.27;;
5622;SDS011;2833;50.432;10.706;2023-12-20T14:47:30;9.97;;;4.60;;
5622;SDS011;2833;50.432;10.706;2023-12-20T14:49:55;8.57;;;4.00;;
5622;SDS011;2833;50.432;10.706;2023-12-20T14:52:21;14.97;;;4.10;;
5622;SDS011;2833;50.432;10.706;2023-12-20T14:54:46;1.90;;;1.80;;
5622;SDS011;2833;50.432;10.706;2023-12-20T14:57:11;9.27;;;3.80;;